sensor_id;sensor_type;location;lat;lon;timestamp;P1;durP1;ratioP1;P2;durP2;ratioP2
81912;SDS011;71377;50.698;7.164;2024-03-17T00:02:23;8.00;;;5.35;;
81912;SDS011;71377;50.698;7.164;2024-03-17T00:04:49;10.13;;;5.28;;
81912;SDS011;71377;50.698;7.164;2024-03-17T00:07:14;7.07;;;4.93;;
81912;SDS011;71377;50.698;7.164;2024-03-17T00:09:40;9.63;;;5.40;;
81912;SDS011;71377;50.698;7.164;2024-03-17T00:12:07;9.05;;;5.35;;
81912;SDS011;71377;50.698;7.164;2024-03-17T00:14:33;9.80;;;5.05;;
81912;SDS011;71377;50.698;7.164;2024-03-17T00:17:02;8.30;;;5.25;;
81912;SDS011;71377;50.698;7.164;2024-03-17T00:19:28;9.57;;;5.22;;
81912;SDS011;71377;50.698;7.164;2024-03-17T00:21:54;7.88;;;5.00;;
81912;SDS011;71377;50.698;7.164;2024-03-17T00:24:19;6.95;;;5.00;;
81912;SDS011;71377;50.698;7.164;2024-03-17T00:26:46;9.13;;;5.43;;
81912;SDS011;71377;50.698;7.164;2024-03-17T00:29:12;8.10;;;5.38;;
81912;SDS011;71377;50.698;7.164;2024-03-17T00:31:38;6.30;;;5.40;;
81912;SDS011;71377;50.698;7.164;2024-03-17T00:34:03;9.35;;;5.22;;
81912;SDS011;71377;50.698;7.164;2024-03-17T00:36:31;6.63;;;5.28;;
81912;SDS011;71377;50.698;7.164;2024-03-17T00:38:57;7.32;;;6.10;;
81912;SDS011;71377;50.698;7.164;2024-03-17T00:41:23;9.88;;;6.05;;
81912;SDS011;71377;50.698;7.164;2024-03-17T00:43:49;6.97;;;5.28;;
81912;SDS011;71377;50.698;7.164;2024-03-17T00:46:15;8.75;;;5.55;;
81912;SDS011;71377;50.698;7.164;2024-03-17T00:48:41;8.25;;;6.10;;
81912;SDS011;71377;50.698;7.164;2024-03-17T00:51:06;8.52;;;5.35;;
81912;SDS011;71377;50.698;7.164;2024-03-17T00:53:32;11.13;;;6.55;;
81912;SDS011;71377;50.698;7.164;2024-03-17T00:55:58;8.20;;;5.55;;
81912;SDS011;71377;50.698;7.164;2024-03-17T00:58:23;8.05;;;5.80;;
81912;SDS011;71377;50.698;7.164;2024-03-17T01:00:49;7.53;;;5.38;;
81912;SDS011;71377;50.698;7.164;2024-03-17T01:03:15;7.43;;;6.10;;
81912;SDS011;71377;50.698;7.164;2024-03-17T01:05:41;7.95;;;5.47;;
81912;SDS011;71377;50.698;7.164;2024-03-17T01:08:12;10.93;;;5.57;;
81912;SDS011;71377;50.698;7.164;2024-03-17T01:10:38;7.10;;;5.50;;
81912;SDS011;71377;50.698;7.164;2024-03-17T01:13:07;9.00;;;6.57;;
81912;SDS011;71377;50.698;7.164;2024-03-17T01:15:34;7.78;;;5.65;;
81912;SDS011;71377;50.698;7.164;2024-03-17T01:18:02;8.40;;;6.20;;
81912;SDS011;71377;50.698;7.164;2024-03-17T01:20:29;9.82;;;5.63;;
81912;SDS011;71377;50.698;7.164;2024-03-17T01:22:59;8.27;;;5.68;;
81912;SDS011;71377;50.698;7.164;2024-03-17T01:25:25;13.48;;;6.13;;
81912;SDS011;71377;50.698;7.164;2024-03-17T01:27:51;10.52;;;5.88;;
81912;SDS011;71377;50.698;7.164;2024-03-17T01:30:17;10.93;;;5.18;;
81912;SDS011;71377;50.698;7.164;2024-03-17T01:32:44;7.13;;;5.68;;
81912;SDS011;71377;50.698;7.164;2024-03-17T01:35:10;9.10;;;5.55;;
81912;SDS011;71377;50.698;7.164;2024-03-17T01:37:37;6.95;;;4.70;;
81912;SDS011;71377;50.698;7.164;2024-03-17T01:40:03;9.20;;;4.95;;
81912;SDS011;71377;50.698;7.164;2024-03-17T01:42:34;5.32;;;4.28;;
81912;SDS011;71377;50.698;7.164;2024-03-17T01:45:00;5.43;;;4.20;;
81912;SDS011;71377;50.698;7.164;2024-03-17T01:47:26;9.13;;;4.60;;
81912;SDS011;71377;50.698;7.164;2024-03-17T01:49:52;7.97;;;4.60;;
81912;SDS011;71377;50.698;7.164;2024-03-17T01:52:19;8.32;;;4.40;;
81912;SDS011;71377;50.698;7.164;2024-03-17T01:54:46;6.75;;;4.65;;
81912;SDS011;71377;50.698;7.164;2024-03-17T01:57:12;6.07;;;4.05;;
81912;SDS011;71377;50.698;7.164;2024-03-17T01:59:38;4.30;;;3.88;;
81912;SDS011;71377;50.698;7.164;2024-03-17T02:02:04;6.35;;;4.50;;
81912;SDS011;71377;50.698;7.164;2024-03-17T02:04:31;9.23;;;4.07;;
81912;SDS011;71377;50.698;7.164;2024-03-17T02:06:56;5.57;;;4.18;;
81912;SDS011;71377;50.698;7.164;2024-03-17T02:09:22;6.85;;;4.43;;
81912;SDS011;71377;50.698;7.164;2024-03-17T02:11:47;7.47;;;5.00;;
81912;SDS011;71377;50.698;7.164;2024-03-17T02:14:13;9.85;;;4.97;;
81912;SDS011;71377;50.698;7.164;2024-03-17T02:16:40;9.25;;;4.70;;
81912;SDS011;71377;50.698;7.164;2024-03-17T02:19:06;6.88;;;4.53;;
81912;SDS011;71377;50.698;7.164;2024-03-17T02:21:31;12.27;;;5.10;;
81912;SDS011;71377;50.698;7.164;2024-03-17T02:23:57;7.97;;;4.88;;
81912;SDS011;71377;50.698;7.164;2024-03-17T02:26:23;8.27;;;4.93;;
81912;SDS011;71377;50.698;7.164;2024-03-17T02:28:50;6.30;;;5.40;;
81912;SDS011;71377;50.698;7.164;2024-03-17T02:31:16;6.93;;;5.32;;
81912;SDS011;71377;50.698;7.164;2024-03-17T02:33:43;7.78;;;5.18;;
81912;SDS011;71377;50.698;7.164;2024-03-17T02:36:09;6.40;;;5.15;;
81912;SDS011;71377;50.698;7.164;2024-03-17T02:38:37;8.40;;;5.47;;
81912;SDS011;71377;50.698;7.164;2024-03-17T02:41:22;9.15;;;5.22;;
81912;SDS011;71377;50.698;7.164;2024-03-17T02:43:48;7.63;;;4.90;;
81912;SDS011;71377;50.698;7.164;2024-03-17T02:46:14;7.50;;;4.65;;
81912;SDS011;71377;50.698;7.164;2024-03-17T02:48:41;6.40;;;4.85;;
81912;SDS011;71377;50.698;7.164;2024-03-17T02:51:16;5.85;;;4.68;;
81912;SDS011;71377;50.698;7.164;2024-03-17T02:53:42;8.45;;;5.03;;
81912;SDS011;71377;50.698;7.164;2024-03-17T02:56:10;6.07;;;4.90;;
81912;SDS011;71377;50.698;7.164;2024-03-17T02:58:36;5.88;;;5.18;;
81912;SDS011;71377;50.698;7.164;2024-03-17T03:01:03;8.88;;;5.15;;
81912;SDS011;71377;50.698;7.164;2024-03-17T03:03:32;6.82;;;5.07;;
81912;SDS011;71377;50.698;7.164;2024-03-17T03:05:58;6.55;;;5.35;;
81912;SDS011;71377;50.698;7.164;2024-03-17T03:08:30;6.43;;;5.30;;
81912;SDS011;71377;50.698;7.164;2024-03-17T03:10:55;6.63;;;5.20;;
81912;SDS011;71377;50.698;7.164;2024-03-17T03:13:21;6.28;;;5.60;;
81912;SDS011;71377;50.698;7.164;2024-03-17T03:15:47;7.78;;;5.32;;
81912;SDS011;71377;50.698;7.164;2024-03-17T03:18:13;6.30;;;5.20;;
81912;SDS011;71377;50.698;7.164;2024-03-17T03:20:39;6.78;;;5.32;;
81912;SDS011;71377;50.698;7.164;2024-03-17T03:23:05;7.38;;;5.55;;
81912;SDS011;71377;50.698;7.164;2024-03-17T03:25:30;9.52;;;5.75;;
81912;SDS011;71377;50.698;7.164;2024-03-17T03:27:56;9.18;;;5.95;;
81912;SDS011;71377;50.698;7.164;2024-03-17T03:30:23;5.53;;;4.93;;
81912;SDS011;71377;50.698;7.164;2024-03-17T03:32:49;5.68;;;5.00;;
81912;SDS011;71377;50.698;7.164;2024-03-17T03:35:14;5.80;;;5.20;;
81912;SDS011;71377;50.698;7.164;2024-03-17T03:37:40;8.00;;;6.30;;
81912;SDS011;71377;50.698;7.164;2024-03-17T03:40:06;12.05;;;5.75;;
81912;SDS011;71377;50.698;7.164;2024-03-17T03:42:43;8.20;;;5.22;;
81912;SDS011;71377;50.698;7.164;2024-03-17T03:45:09;8.50;;;6.18;;
81912;SDS011;71377;50.698;7.164;2024-03-17T03:47:41;8.02;;;5.72;;
81912;SDS011;71377;50.698;7.164;2024-03-17T03:50:10;9.43;;;5.38;;
81912;SDS011;71377;50.698;7.164;2024-03-17T03:52:36;8.57;;;5.15;;
81912;SDS011;71377;50.698;7.164;2024-03-17T03:55:03;6.78;;;5.65;;
81912;SDS011;71377;50.698;7.164;2024-03-17T03:57:38;7.63;;;5.40;;
81912;SDS011;71377;50.698;7.164;2024-03-17T04:00:04;6.05;;;5.45;;
81912;SDS011;71377;50.698;7.164;2024-03-17T04:02:37;6.38;;;5.10;;
81912;SDS011;71377;50.698;7.164;2024-03-17T04:05:03;10.68;;;5.22;;
81912;SDS011;71377;50.698;7.164;2024-03-17T04:07:29;9.55;;;5.32;;
81912;SDS011;71377;50.698;7.164;2024-03-17T04:09:55;6.60;;;5.60;;
81912;SDS011;71377;50.698;7.164;2024-03-17T04:12:20;11.27;;;5.53;;
81912;SDS011;71377;50.698;7.164;2024-03-17T04:14:46;7.95;;;5.57;;
81912;SDS011;71377;50.698;7.164;2024-03-17T04:17:13;8.13;;;6.00;;
81912;SDS011;71377;50.698;7.164;2024-03-17T04:19:38;8.52;;;5.80;;
81912;SDS011;71377;50.698;7.164;2024-03-17T04:22:03;7.70;;;6.05;;
81912;SDS011;71377;50.698;7.164;2024-03-17T04:24:29;6.47;;;5.68;;
81912;SDS011;71377;50.698;7.164;2024-03-17T04:26:55;9.15;;;5.65;;
81912;SDS011;71377;50.698;7.164;2024-03-17T04:29:20;6.82;;;5.97;;
81912;SDS011;71377;50.698;7.164;2024-03-17T04:31:46;9.82;;;5.90;;
81912;SDS011;71377;50.698;7.164;2024-03-17T04:34:14;9.55;;;5.70;;
81912;SDS011;71377;50.698;7.164;2024-03-17T04:36:40;8.85;;;5.35;;
81912;SDS011;71377;50.698;7.164;2024-03-17T04:39:05;8.07;;;5.55;;
81912;SDS011;71377;50.698;7.164;2024-03-17T04:41:33;8.63;;;5.75;;
81912;SDS011;71377;50.698;7.164;2024-03-17T04:43:59;7.72;;;5.85;;
81912;SDS011;71377;50.698;7.164;2024-03-17T04:46:24;7.25;;;5.38;;
81912;SDS011;71377;50.698;7.164;2024-03-17T04:48:51;7.40;;;5.75;;
81912;SDS011;71377;50.698;7.164;2024-03-17T04:51:17;9.40;;;5.70;;
81912;SDS011;71377;50.698;7.164;2024-03-17T04:53:43;10.23;;;6.13;;
81912;SDS011;71377;50.698;7.164;2024-03-17T04:56:08;7.07;;;5.45;;
81912;SDS011;71377;50.698;7.164;2024-03-17T04:58:34;6.30;;;5.70;;
81912;SDS011;71377;50.698;7.164;2024-03-17T05:01:09;8.25;;;6.40;;
81912;SDS011;71377;50.698;7.164;2024-03-17T05:03:35;7.65;;;6.32;;
81912;SDS011;71377;50.698;7.164;2024-03-17T05:06:01;7.15;;;5.60;;
81912;SDS011;71377;50.698;7.164;2024-03-17T05:08:28;7.32;;;6.07;;
81912;SDS011;71377;50.698;7.164;2024-03-17T05:10:58;8.93;;;6.32;;
81912;SDS011;71377;50.698;7.164;2024-03-17T05:13:27;6.80;;;5.78;;
81912;SDS011;71377;50.698;7.164;2024-03-17T05:15:53;8.52;;;6.15;;
81912;SDS011;71377;50.698;7.164;2024-03-17T05:18:19;9.07;;;6.15;;
81912;SDS011;71377;50.698;7.164;2024-03-17T05:20:46;7.20;;;5.60;;
81912;SDS011;71377;50.698;7.164;2024-03-17T05:23:12;9.93;;;6.20;;
81912;SDS011;71377;50.698;7.164;2024-03-17T05:25:39;6.15;;;5.55;;
81912;SDS011;71377;50.698;7.164;2024-03-17T05:28:04;5.88;;;5.28;;
81912;SDS011;71377;50.698;7.164;2024-03-17T05:30:30;6.80;;;5.50;;
81912;SDS011;71377;50.698;7.164;2024-03-17T05:32:56;8.05;;;6.20;;
81912;SDS011;71377;50.698;7.164;2024-03-17T05:35:21;6.60;;;5.90;;
81912;SDS011;71377;50.698;7.164;2024-03-17T05:37:48;6.60;;;5.90;;
81912;SDS011;71377;50.698;7.164;2024-03-17T05:40:14;9.07;;;5.80;;
81912;SDS011;71377;50.698;7.164;2024-03-17T05:42:43;8.02;;;5.93;;
81912;SDS011;71377;50.698;7.164;2024-03-17T05:45:09;7.47;;;6.30;;
81912;SDS011;71377;50.698;7.164;2024-03-17T05:47:38;8.63;;;5.90;;
81912;SDS011;71377;50.698;7.164;2024-03-17T05:50:04;8.85;;;6.32;;
81912;SDS011;71377;50.698;7.164;2024-03-17T05:52:29;7.78;;;6.35;;
81912;SDS011;71377;50.698;7.164;2024-03-17T05:54:55;8.50;;;6.22;;
81912;SDS011;71377;50.698;7.164;2024-03-17T05:57:21;7.75;;;6.40;;
81912;SDS011;71377;50.698;7.164;2024-03-17T05:59:48;9.07;;;6.53;;
81912;SDS011;71377;50.698;7.164;2024-03-17T06:02:13;9.75;;;6.90;;
81912;SDS011;71377;50.698;7.164;2024-03-17T06:04:40;7.13;;;6.32;;
81912;SDS011;71377;50.698;7.164;2024-03-17T06:07:06;6.82;;;6.13;;
81912;SDS011;71377;50.698;7.164;2024-03-17T06:09:31;7.63;;;6.03;;
81912;SDS011;71377;50.698;7.164;2024-03-17T06:11:57;7.63;;;5.90;;
81912;SDS011;71377;50.698;7.164;2024-03-17T06:14:22;10.15;;;6.25;;
81912;SDS011;71377;50.698;7.164;2024-03-17T06:16:48;8.55;;;5.55;;
81912;SDS011;71377;50.698;7.164;2024-03-17T06:19:14;7.97;;;5.47;;
81912;SDS011;71377;50.698;7.164;2024-03-17T06:21:40;7.13;;;5.80;;
81912;SDS011;71377;50.698;7.164;2024-03-17T06:24:06;7.45;;;5.30;;
81912;SDS011;71377;50.698;7.164;2024-03-17T06:26:32;7.28;;;6.00;;
81912;SDS011;71377;50.698;7.164;2024-03-17T06:29:02;9.95;;;6.18;;
81912;SDS011;71377;50.698;7.164;2024-03-17T06:31:28;6.53;;;5.80;;
81912;SDS011;71377;50.698;7.164;2024-03-17T06:33:53;10.15;;;6.85;;
81912;SDS011;71377;50.698;7.164;2024-03-17T06:36:19;8.68;;;6.15;;
81912;SDS011;71377;50.698;7.164;2024-03-17T06:38:44;8.65;;;6.30;;
81912;SDS011;71377;50.698;7.164;2024-03-17T06:41:10;10.57;;;6.40;;
81912;SDS011;71377;50.698;7.164;2024-03-17T06:43:35;8.18;;;6.15;;
81912;SDS011;71377;50.698;7.164;2024-03-17T06:46:01;6.75;;;5.97;;
81912;SDS011;71377;50.698;7.164;2024-03-17T06:48:27;7.78;;;5.88;;
81912;SDS011;71377;50.698;7.164;2024-03-17T06:50:53;8.82;;;6.40;;
81912;SDS011;71377;50.698;7.164;2024-03-17T06:53:23;8.95;;;5.90;;
81912;SDS011;71377;50.698;7.164;2024-03-17T06:55:58;10.82;;;5.65;;
81912;SDS011;71377;50.698;7.164;2024-03-17T06:58:25;5.90;;;5.25;;
81912;SDS011;71377;50.698;7.164;2024-03-17T07:00:59;8.35;;;6.15;;
81912;SDS011;71377;50.698;7.164;2024-03-17T07:03:27;7.65;;;5.85;;
81912;SDS011;71377;50.698;7.164;2024-03-17T07:05:58;7.00;;;5.82;;
81912;SDS011;71377;50.698;7.164;2024-03-17T07:08:27;11.07;;;5.78;;
81912;SDS011;71377;50.698;7.164;2024-03-17T07:10:56;8.38;;;5.30;;
81912;SDS011;71377;50.698;7.164;2024-03-17T07:13:34;6.28;;;5.55;;
81912;SDS011;71377;50.698;7.164;2024-03-17T07:16:02;6.78;;;4.97;;
81912;SDS011;71377;50.698;7.164;2024-03-17T07:18:31;7.82;;;4.55;;
81912;SDS011;71377;50.698;7.164;2024-03-17T07:20:57;6.97;;;4.97;;
81912;SDS011;71377;50.698;7.164;2024-03-17T07:23:24;6.88;;;4.97;;
81912;SDS011;71377;50.698;7.164;2024-03-17T07:25:53;6.88;;;5.15;;
81912;SDS011;71377;50.698;7.164;2024-03-17T07:28:22;6.65;;;5.00;;
81912;SDS011;71377;50.698;7.164;2024-03-17T07:30:49;6.60;;;4.65;;
81912;SDS011;71377;50.698;7.164;2024-03-17T07:33:16;5.03;;;4.53;;
81912;SDS011;71377;50.698;7.164;2024-03-17T07:38:14;8.50;;;4.38;;
81912;SDS011;71377;50.698;7.164;2024-03-17T07:40:39;6.43;;;4.85;;
81912;SDS011;71377;50.698;7.164;2024-03-17T07:43:05;8.25;;;4.93;;
81912;SDS011;71377;50.698;7.164;2024-03-17T07:45:30;5.53;;;4.93;;
81912;SDS011;71377;50.698;7.164;2024-03-17T07:47:56;6.30;;;4.35;;
81912;SDS011;71377;50.698;7.164;2024-03-17T07:50:21;8.23;;;4.63;;
81912;SDS011;71377;50.698;7.164;2024-03-17T07:52:47;5.63;;;4.47;;
81912;SDS011;71377;50.698;7.164;2024-03-17T07:55:12;4.40;;;3.97;;
81912;SDS011;71377;50.698;7.164;2024-03-17T07:57:38;5.35;;;4.13;;
81912;SDS011;71377;50.698;7.164;2024-03-17T08:00:04;4.35;;;3.95;;
81912;SDS011;71377;50.698;7.164;2024-03-17T08:02:35;9.77;;;4.18;;
81912;SDS011;71377;50.698;7.164;2024-03-17T08:05:00;5.22;;;4.03;;
81912;SDS011;71377;50.698;7.164;2024-03-17T08:07:26;4.90;;;4.40;;
81912;SDS011;71377;50.698;7.164;2024-03-17T08:09:51;6.47;;;3.70;;
81912;SDS011;71377;50.698;7.164;2024-03-17T08:12:17;7.10;;;4.50;;
81912;SDS011;71377;50.698;7.164;2024-03-17T08:14:42;4.78;;;4.25;;
81912;SDS011;71377;50.698;7.164;2024-03-17T08:17:08;4.72;;;4.18;;
81912;SDS011;71377;50.698;7.164;2024-03-17T08:19:35;7.38;;;4.40;;
81912;SDS011;71377;50.698;7.164;2024-03-17T08:22:01;6.38;;;4.40;;
81912;SDS011;71377;50.698;7.164;2024-03-17T08:24:26;6.40;;;4.35;;
81912;SDS011;71377;50.698;7.164;2024-03-17T08:26:51;6.47;;;4.68;;
81912;SDS011;71377;50.698;7.164;2024-03-17T08:29:17;8.82;;;5.30;;
81912;SDS011;71377;50.698;7.164;2024-03-17T08:31:42;8.70;;;4.07;;
81912;SDS011;71377;50.698;7.164;2024-03-17T08:34:10;7.00;;;4.68;;
81912;SDS011;71377;50.698;7.164;2024-03-17T08:36:35;8.57;;;3.90;;
81912;SDS011;71377;50.698;7.164;2024-03-17T08:39:01;5.68;;;4.03;;
81912;SDS011;71377;50.698;7.164;2024-03-17T08:41:27;6.63;;;3.85;;
81912;SDS011;71377;50.698;7.164;2024-03-17T08:43:52;4.93;;;4.13;;
81912;SDS011;71377;50.698;7.164;2024-03-17T08:46:18;6.43;;;3.70;;
81912;SDS011;71377;50.698;7.164;2024-03-17T08:48:43;5.38;;;3.40;;
81912;SDS011;71377;50.698;7.164;2024-03-17T08:51:09;5.13;;;3.40;;
81912;SDS011;71377;50.698;7.164;2024-03-17T08:53:35;7.38;;;3.00;;
81912;SDS011;71377;50.698;7.164;2024-03-17T08:56:03;6.25;;;3.35;;
81912;SDS011;71377;50.698;7.164;2024-03-17T08:58:29;3.63;;;2.95;;
81912;SDS011;71377;50.698;7.164;2024-03-17T09:00:55;5.00;;;3.42;;
81912;SDS011;71377;50.698;7.164;2024-03-17T09:03:21;4.43;;;2.83;;
81912;SDS011;71377;50.698;7.164;2024-03-17T09:05:47;4.72;;;3.13;;
81912;SDS011;71377;50.698;7.164;2024-03-17T09:08:18;3.70;;;2.63;;
81912;SDS011;71377;50.698;7.164;2024-03-17T09:10:48;5.88;;;2.92;;
81912;SDS011;71377;50.698;7.164;2024-03-17T09:13:15;4.60;;;2.60;;
81912;SDS011;71377;50.698;7.164;2024-03-17T09:15:58;3.63;;;2.40;;
81912;SDS011;71377;50.698;7.164;2024-03-17T09:18:25;3.92;;;2.55;;
81912;SDS011;71377;50.698;7.164;2024-03-17T09:20:56;5.88;;;2.50;;
81912;SDS011;71377;50.698;7.164;2024-03-17T09:23:22;2.85;;;2.65;;
81912;SDS011;71377;50.698;7.164;2024-03-17T09:26:04;3.92;;;2.25;;
81912;SDS011;71377;50.698;7.164;2024-03-17T09:30:59;2.58;;;2.38;;
81912;SDS011;71377;50.698;7.164;2024-03-17T09:33:26;3.28;;;2.08;;
81912;SDS011;71377;50.698;7.164;2024-03-17T09:35:55;3.40;;;2.42;;
81912;SDS011;71377;50.698;7.164;2024-03-17T09:38:22;2.95;;;2.20;;
81912;SDS011;71377;50.698;7.164;2024-03-17T09:40:48;3.10;;;2.15;;
81912;SDS011;71377;50.698;7.164;2024-03-17T09:43:16;3.13;;;2.30;;
81912;SDS011;71377;50.698;7.164;2024-03-17T09:45:42;2.80;;;2.42;;
81912;SDS011;71377;50.698;7.164;2024-03-17T09:48:07;4.05;;;2.20;;
81912;SDS011;71377;50.698;7.164;2024-03-17T09:50:39;4.85;;;2.08;;
81912;SDS011;71377;50.698;7.164;2024-03-17T09:53:05;2.95;;;2.10;;
81912;SDS011;71377;50.698;7.164;2024-03-17T09:55:30;3.47;;;2.10;;
81912;SDS011;71377;50.698;7.164;2024-03-17T09:57:56;3.08;;;2.13;;
81912;SDS011;71377;50.698;7.164;2024-03-17T10:00:21;2.75;;;2.00;;
81912;SDS011;71377;50.698;7.164;2024-03-17T10:02:47;3.55;;;2.30;;
81912;SDS011;71377;50.698;7.164;2024-03-17T10:05:20;2.75;;;2.40;;
81912;SDS011;71377;50.698;7.164;2024-03-17T10:07:47;2.85;;;2.28;;
81912;SDS011;71377;50.698;7.164;2024-03-17T10:10:16;3.97;;;2.30;;
81912;SDS011;71377;50.698;7.164;2024-03-17T10:12:44;4.18;;;1.95;;
81912;SDS011;71377;50.698;7.164;2024-03-17T10:15:15;3.58;;;1.95;;
81912;SDS011;71377;50.698;7.164;2024-03-17T10:17:40;1.95;;;1.77;;
81912;SDS011;71377;50.698;7.164;2024-03-17T10:22:51;4.05;;;2.00;;
81912;SDS011;71377;50.698;7.164;2024-03-17T10:25:26;4.97;;;2.30;;
81912;SDS011;71377;50.698;7.164;2024-03-17T10:27:53;5.20;;;2.53;;
81912;SDS011;71377;50.698;7.164;2024-03-17T10:30:19;2.75;;;1.77;;
81912;SDS011;71377;50.698;7.164;2024-03-17T10:32:51;3.08;;;2.03;;
81912;SDS011;71377;50.698;7.164;2024-03-17T10:35:31;3.97;;;2.20;;
81912;SDS011;71377;50.698;7.164;2024-03-17T10:38:03;4.45;;;2.17;;
81912;SDS011;71377;50.698;7.164;2024-03-17T10:40:30;2.63;;;1.95;;
81912;SDS011;71377;50.698;7.164;2024-03-17T10:42:59;3.95;;;1.90;;
81912;SDS011;71377;50.698;7.164;2024-03-17T10:45:26;2.75;;;2.10;;
81912;SDS011;71377;50.698;7.164;2024-03-17T10:47:55;5.30;;;2.50;;
81912;SDS011;71377;50.698;7.164;2024-03-17T10:50:24;2.78;;;2.20;;
81912;SDS011;71377;50.698;7.164;2024-03-17T10:52:50;3.00;;;2.08;;
81912;SDS011;71377;50.698;7.164;2024-03-17T10:55:23;5.35;;;2.38;;
81912;SDS011;71377;50.698;7.164;2024-03-17T10:57:50;4.53;;;2.50;;
81912;SDS011;71377;50.698;7.164;2024-03-17T11:00:19;5.57;;;2.10;;
81912;SDS011;71377;50.698;7.164;2024-03-17T11:02:47;3.15;;;1.90;;
81912;SDS011;71377;50.698;7.164;2024-03-17T11:05:15;2.17;;;1.98;;
81912;SDS011;71377;50.698;7.164;2024-03-17T11:07:45;3.13;;;2.10;;
81912;SDS011;71377;50.698;7.164;2024-03-17T11:10:16;3.53;;;2.00;;
81912;SDS011;71377;50.698;7.164;2024-03-17T11:12:54;3.13;;;2.03;;
81912;SDS011;71377;50.698;7.164;2024-03-17T11:18:41;3.80;;;2.00;;
81912;SDS011;71377;50.698;7.164;2024-03-17T11:20:58;2.45;;;1.90;;
81912;SDS011;71377;50.698;7.164;2024-03-17T11:23:27;3.28;;;2.17;;
81912;SDS011;71377;50.698;7.164;2024-03-17T11:25:54;3.30;;;2.22;;
81912;SDS011;71377;50.698;7.164;2024-03-17T11:34:01;3.70;;;2.10;;
81912;SDS011;71377;50.698;7.164;2024-03-17T11:39:07;3.55;;;1.90;;
81912;SDS011;71377;50.698;7.164;2024-03-17T11:41:47;3.35;;;2.28;;
81912;SDS011;71377;50.698;7.164;2024-03-17T11:46:56;3.25;;;2.30;;
81912;SDS011;71377;50.698;7.164;2024-03-17T11:49:29;3.55;;;2.55;;
81912;SDS011;71377;50.698;7.164;2024-03-17T11:52:00;2.92;;;2.35;;
81912;SDS011;71377;50.698;7.164;2024-03-17T11:54:32;4.40;;;2.75;;
81912;SDS011;71377;50.698;7.164;2024-03-17T11:57:03;3.83;;;2.20;;
81912;SDS011;71377;50.698;7.164;2024-03-17T11:59:31;3.08;;;2.13;;
81912;SDS011;71377;50.698;7.164;2024-03-17T12:01:58;4.18;;;2.33;;
81912;SDS011;71377;50.698;7.164;2024-03-17T12:04:24;5.10;;;2.38;;
81912;SDS011;71377;50.698;7.164;2024-03-17T12:06:51;4.22;;;2.50;;
81912;SDS011;71377;50.698;7.164;2024-03-17T12:09:19;4.00;;;2.60;;
81912;SDS011;71377;50.698;7.164;2024-03-17T12:14:24;3.00;;;2.20;;
81912;SDS011;71377;50.698;7.164;2024-03-17T12:16:53;4.57;;;2.38;;
81912;SDS011;71377;50.698;7.164;2024-03-17T12:19:20;3.22;;;2.17;;
81912;SDS011;71377;50.698;7.164;2024-03-17T12:21:51;5.32;;;2.67;;
81912;SDS011;71377;50.698;7.164;2024-03-17T12:24:19;5.82;;;2.50;;
81912;SDS011;71377;50.698;7.164;2024-03-17T12:26:47;3.83;;;2.60;;
81912;SDS011;71377;50.698;7.164;2024-03-17T12:29:23;4.38;;;2.35;;
81912;SDS011;71377;50.698;7.164;2024-03-17T12:31:55;4.47;;;2.35;;
81912;SDS011;71377;50.698;7.164;2024-03-17T12:34:26;3.08;;;2.28;;
81912;SDS011;71377;50.698;7.164;2024-03-17T12:36:53;4.03;;;2.30;;
81912;SDS011;71377;50.698;7.164;2024-03-17T12:39:20;2.92;;;2.38;;
81912;SDS011;71377;50.698;7.164;2024-03-17T12:44:35;4.00;;;2.50;;
81912;SDS011;71377;50.698;7.164;2024-03-17T12:47:08;6.10;;;2.83;;
81912;SDS011;71377;50.698;7.164;2024-03-17T12:49:43;4.00;;;2.30;;
81912;SDS011;71377;50.698;7.164;2024-03-17T12:52:31;6.22;;;2.80;;
81912;SDS011;71377;50.698;7.164;2024-03-17T12:57:52;4.10;;;2.40;;
81912;SDS011;71377;50.698;7.164;2024-03-17T13:01:00;3.88;;;2.45;;
81912;SDS011;71377;50.698;7.164;2024-03-17T13:03:27;5.18;;;2.75;;
81912;SDS011;71377;50.698;7.164;2024-03-17T13:05:54;3.35;;;2.60;;
81912;SDS011;71377;50.698;7.164;2024-03-17T13:08:20;3.72;;;2.60;;
81912;SDS011;71377;50.698;7.164;2024-03-17T13:10:46;5.30;;;2.55;;
81912;SDS011;71377;50.698;7.164;2024-03-17T13:13:12;4.10;;;2.17;;
81912;SDS011;71377;50.698;7.164;2024-03-17T13:15:41;3.65;;;2.58;;
81912;SDS011;71377;50.698;7.164;2024-03-17T13:18:07;5.57;;;2.50;;
81912;SDS011;71377;50.698;7.164;2024-03-17T13:20:33;4.65;;;2.60;;
81912;SDS011;71377;50.698;7.164;2024-03-17T13:22:59;3.63;;;2.40;;
81912;SDS011;71377;50.698;7.164;2024-03-17T13:25:26;2.80;;;2.28;;
81912;SDS011;71377;50.698;7.164;2024-03-17T13:27:55;3.88;;;2.53;;
81912;SDS011;71377;50.698;7.164;2024-03-17T13:30:21;5.50;;;2.50;;
81912;SDS011;71377;50.698;7.164;2024-03-17T13:32:49;4.65;;;2.65;;
81912;SDS011;71377;50.698;7.164;2024-03-17T13:35:21;5.65;;;2.42;;
81912;SDS011;71377;50.698;7.164;2024-03-17T13:37:48;3.60;;;2.47;;
81912;SDS011;71377;50.698;7.164;2024-03-17T13:40:15;4.45;;;2.60;;
81912;SDS011;71377;50.698;7.164;2024-03-17T13:42:44;3.55;;;2.38;;
81912;SDS011;71377;50.698;7.164;2024-03-17T13:45:10;3.92;;;2.53;;
81912;SDS011;71377;50.698;7.164;2024-03-17T13:47:37;6.10;;;2.85;;
81912;SDS011;71377;50.698;7.164;2024-03-17T13:50:07;3.60;;;2.30;;
81912;SDS011;71377;50.698;7.164;2024-03-17T13:52:36;4.50;;;2.33;;
81912;SDS011;71377;50.698;7.164;2024-03-17T13:55:03;2.50;;;2.08;;
81912;SDS011;71377;50.698;7.164;2024-03-17T13:57:35;2.50;;;2.03;;
81912;SDS011;71377;50.698;7.164;2024-03-17T14:00:00;4.55;;;2.50;;
81912;SDS011;71377;50.698;7.164;2024-03-17T14:02:26;4.75;;;2.25;;
81912;SDS011;71377;50.698;7.164;2024-03-17T14:04:52;3.90;;;2.47;;
81912;SDS011;71377;50.698;7.164;2024-03-17T14:07:17;2.70;;;2.10;;
81912;SDS011;71377;50.698;7.164;2024-03-17T14:09:43;4.90;;;2.55;;
81912;SDS011;71377;50.698;7.164;2024-03-17T14:12:08;3.53;;;2.65;;
81912;SDS011;71377;50.698;7.164;2024-03-17T14:14:34;3.85;;;2.65;;
81912;SDS011;71377;50.698;7.164;2024-03-17T14:16:59;4.38;;;2.60;;
81912;SDS011;71377;50.698;7.164;2024-03-17T14:19:25;2.47;;;2.28;;
81912;SDS011;71377;50.698;7.164;2024-03-17T14:21:51;3.30;;;2.38;;
81912;SDS011;71377;50.698;7.164;2024-03-17T14:24:17;4.22;;;2.70;;
81912;SDS011;71377;50.698;7.164;2024-03-17T14:26:43;3.67;;;2.00;;
81912;SDS011;71377;50.698;7.164;2024-03-17T14:29:08;3.67;;;2.28;;
81912;SDS011;71377;50.698;7.164;2024-03-17T14:31:34;2.97;;;2.05;;
81912;SDS011;71377;50.698;7.164;2024-03-17T14:34:04;4.70;;;2.35;;
81912;SDS011;71377;50.698;7.164;2024-03-17T14:36:33;4.20;;;2.28;;
81912;SDS011;71377;50.698;7.164;2024-03-17T14:38:59;4.60;;;2.63;;
81912;SDS011;71377;50.698;7.164;2024-03-17T14:41:29;5.53;;;2.40;;
81912;SDS011;71377;50.698;7.164;2024-03-17T14:43:55;4.78;;;2.42;;
81912;SDS011;71377;50.698;7.164;2024-03-17T14:46:22;3.28;;;2.30;;
81912;SDS011;71377;50.698;7.164;2024-03-17T14:48:48;3.78;;;2.47;;
81912;SDS011;71377;50.698;7.164;2024-03-17T14:51:16;4.82;;;2.65;;
81912;SDS011;71377;50.698;7.164;2024-03-17T14:53:42;7.18;;;2.50;;
81912;SDS011;71377;50.698;7.164;2024-03-17T14:56:16;3.08;;;2.40;;
81912;SDS011;71377;50.698;7.164;2024-03-17T14:58:43;3.78;;;2.70;;
81912;SDS011;71377;50.698;7.164;2024-03-17T15:01:09;6.07;;;2.60;;
81912;SDS011;71377;50.698;7.164;2024-03-17T15:03:36;5.57;;;2.22;;
81912;SDS011;71377;50.698;7.164;2024-03-17T15:06:01;5.00;;;2.47;;
81912;SDS011;71377;50.698;7.164;2024-03-17T15:08:29;5.22;;;2.20;;
81912;SDS011;71377;50.698;7.164;2024-03-17T15:10:56;2.85;;;2.30;;
81912;SDS011;71377;50.698;7.164;2024-03-17T15:13:21;3.67;;;2.17;;
81912;SDS011;71377;50.698;7.164;2024-03-17T15:15:48;5.07;;;2.13;;
81912;SDS011;71377;50.698;7.164;2024-03-17T15:18:14;4.47;;;2.65;;
81912;SDS011;71377;50.698;7.164;2024-03-17T15:20:41;3.88;;;2.25;;